sensor_id;sensor_type;location;lat;lon;timestamp;pressure;altitude;pressure_sealevel;temperature;humidity
818;BME280;391;51.052;6.954;2023-09-19T00:01:20;100080.50;;;16.61;99.24
818;BME280;391;51.052;6.954;2023-09-19T00:03:23;100084.88;;;16.59;99.73
818;BME280;391;51.052;6.954;2023-09-19T00:05:29;100023.72;;;16.21;99.16
818;BME280;391;51.052;6.954;2023-09-19T00:07:33;100082.28;;;16.58;99.76
818;BME280;391;51.052;6.954;2023-09-19T00:09:39;100079.66;;;16.56;99.89
818;BME280;391;51.052;6.954;2023-09-19T00:11:43;100089.34;;;16.56;98.85
818;BME280;391;51.052;6.954;2023-09-19T00:13:47;100089.31;;;16.51;99.52
818;BME280;391;51.052;6.954;2023-09-19T00:15:52;100088.41;;;16.54;99.18
818;BME280;391;51.052;6.954;2023-09-19T00:17:58;100091.13;;;16.38;100.00
818;BME280;391;51.052;6.954;2023-09-19T00:20:02;100091.09;;;16.45;100.00
818;BME280;391;51.052;6.954;2023-09-19T00:22:09;100099.88;;;16.40;100.00
818;BME280;391;51.052;6.954;2023-09-19T00:24:13;100087.66;;;16.33;100.00
818;BME280;391;51.052;6.954;2023-09-19T00:26:16;100101.66;;;16.38;100.00
818;BME280;391;51.052;6.954;2023-09-19T00:28:22;100100.72;;;16.50;100.00
818;BME280;391;51.052;6.954;2023-09-19T00:30:26;100105.13;;;16.43;99.77
818;BME280;391;51.052;6.954;2023-09-19T00:32:30;100100.78;;;16.42;100.00
818;BME280;391;51.052;6.954;2023-09-19T00:34:34;100097.25;;;16.37;100.00
818;BME280;391;51.052;6.954;2023-09-19T00:36:38;100111.34;;;16.32;100.00
818;BME280;391;51.052;6.954;2023-09-19T00:38:41;100099.00;;;16.40;100.00
818;BME280;391;51.052;6.954;2023-09-19T00:40:47;100105.19;;;16.33;100.00
818;BME280;391;51.052;6.954;2023-09-19T00:42:50;100108.66;;;16.38;100.00
818;BME280;391;51.052;6.954;2023-09-19T00:44:55;100112.19;;;16.38;100.00
818;BME280;391;51.052;6.954;2023-09-19T00:46:58;100111.34;;;16.33;100.00
818;BME280;391;51.052;6.954;2023-09-19T00:49:02;100112.22;;;16.29;100.00
818;BME280;391;51.052;6.954;2023-09-19T00:51:07;100111.31;;;16.38;100.00
818;BME280;391;51.052;6.954;2023-09-19T00:53:15;100119.22;;;16.32;100.00
818;BME280;391;51.052;6.954;2023-09-19T00:55:21;100115.75;;;16.30;100.00
818;BME280;391;51.052;6.954;2023-09-19T00:57:24;100114.84;;;16.31;100.00
818;BME280;391;51.052;6.954;2023-09-19T00:59:29;100121.84;;;16.35;100.00
818;BME280;391;51.052;6.954;2023-09-19T01:01:34;100117.50;;;16.25;100.00
818;BME280;391;51.052;6.954;2023-09-19T01:03:44;100097.38;;;16.13;100.00
818;BME280;391;51.052;6.954;2023-09-19T01:05:48;100117.50;;;16.22;100.00
818;BME280;391;51.052;6.954;2023-09-19T01:07:54;100116.63;;;16.29;100.00
818;BME280;391;51.052;6.954;2023-09-19T01:09:58;100120.97;;;16.31;100.00
818;BME280;391;51.052;6.954;2023-09-19T01:12:05;100126.31;;;16.21;100.00
818;BME280;391;51.052;6.954;2023-09-19T01:14:22;100131.56;;;16.24;100.00
818;BME280;391;51.052;6.954;2023-09-19T01:16:35;100132.41;;;16.26;100.00
818;BME280;391;51.052;6.954;2023-09-19T01:18:47;100133.31;;;16.20;100.00
818;BME280;391;51.052;6.954;2023-09-19T01:21:01;100132.41;;;16.26;100.00
818;BME280;391;51.052;6.954;2023-09-19T01:23:17;100103.56;;;16.08;100.00
818;BME280;391;51.052;6.954;2023-09-19T01:25:55;100135.03;;;16.30;100.00
818;BME280;391;51.052;6.954;2023-09-19T01:28:20;100133.28;;;16.29;99.34
818;BME280;391;51.052;6.954;2023-09-19T01:30:32;100149.94;;;16.30;99.59
818;BME280;391;51.052;6.954;2023-09-19T01:32:39;100137.66;;;16.29;99.23
818;BME280;391;51.052;6.954;2023-09-19T01:34:44;100150.81;;;16.30;98.68
818;BME280;391;51.052;6.954;2023-09-19T01:36:50;100136.81;;;16.19;98.70
818;BME280;391;51.052;6.954;2023-09-19T01:38:54;100149.91;;;16.31;98.60
818;BME280;391;51.052;6.954;2023-09-19T01:41:04;100151.72;;;16.23;99.61
818;BME280;391;51.052;6.954;2023-09-19T01:43:14;100136.81;;;16.15;99.99
818;BME280;391;51.052;6.954;2023-09-19T01:45:27;100158.72;;;16.26;98.77
818;BME280;391;51.052;6.954;2023-09-19T01:47:43;100166.59;;;16.26;98.64
818;BME280;391;51.052;6.954;2023-09-19T01:49:55;100161.34;;;16.23;99.08
818;BME280;391;51.052;6.954;2023-09-19T01:52:11;100158.69;;;16.24;98.79
818;BME280;391;51.052;6.954;2023-09-19T01:54:26;100171.00;;;16.22;98.75
818;BME280;391;51.052;6.954;2023-09-19T01:56:34;100164.00;;;16.23;98.84
818;BME280;391;51.052;6.954;2023-09-19T01:58:43;100164.88;;;16.23;98.95
818;BME280;391;51.052;6.954;2023-09-19T02:00:49;100171.88;;;16.26;98.43
818;BME280;391;51.052;6.954;2023-09-19T02:02:56;100174.50;;;16.21;98.78
818;BME280;391;51.052;6.954;2023-09-19T02:05:02;100171.88;;;16.20;97.51
818;BME280;391;51.052;6.954;2023-09-19T02:07:07;100174.53;;;16.17;96.08
818;BME280;391;51.052;6.954;2023-09-19T02:09:10;100179.78;;;16.15;96.35
818;BME280;391;51.052;6.954;2023-09-19T02:11:14;100113.28;;;15.74;96.06
818;BME280;391;51.052;6.954;2023-09-19T02:13:19;100171.03;;;16.10;95.61
818;BME280;391;51.052;6.954;2023-09-19T02:15:22;100192.06;;;16.12;95.18
818;BME280;391;51.052;6.954;2023-09-19T02:17:25;100189.47;;;16.07;95.31
818;BME280;391;51.052;6.954;2023-09-19T02:19:30;100185.09;;;16.08;94.60
818;BME280;391;51.052;6.954;2023-09-19T02:21:36;100180.69;;;16.11;95.14
818;BME280;391;51.052;6.954;2023-09-19T02:23:42;100193.84;;;16.10;93.22
818;BME280;391;51.052;6.954;2023-09-19T02:25:52;100194.72;;;16.06;93.45
818;BME280;391;51.052;6.954;2023-09-19T02:27:56;100197.34;;;16.03;94.07
818;BME280;391;51.052;6.954;2023-09-19T02:30:00;100194.75;;;15.98;94.92
818;BME280;391;51.052;6.954;2023-09-19T02:32:06;100196.50;;;15.98;94.94
818;BME280;391;51.052;6.954;2023-09-19T02:34:11;100175.47;;;15.84;95.46
818;BME280;391;51.052;6.954;2023-09-19T02:36:17;100192.97;;;15.93;94.66
818;BME280;391;51.052;6.954;2023-09-19T02:38:22;100198.25;;;15.88;94.34
818;BME280;391;51.052;6.954;2023-09-19T02:40:27;100201.75;;;15.93;94.01
818;BME280;391;51.052;6.954;2023-09-19T02:42:31;100195.63;;;15.86;94.05
818;BME280;391;51.052;6.954;2023-09-19T02:44:34;100200.00;;;15.89;93.03
818;BME280;391;51.052;6.954;2023-09-19T02:46:38;100202.63;;;15.84;93.86
818;BME280;391;51.052;6.954;2023-09-19T02:48:43;100210.53;;;15.87;92.89
818;BME280;391;51.052;6.954;2023-09-19T02:50:49;100201.75;;;15.90;91.81
818;BME280;391;51.052;6.954;2023-09-19T02:52:55;100206.13;;;15.93;91.87
818;BME280;391;51.052;6.954;2023-09-19T02:54:58;100182.50;;;15.71;92.62
818;BME280;391;51.052;6.954;2023-09-19T02:57:04;100186.00;;;15.67;92.77
818;BME280;391;51.052;6.954;2023-09-19T02:59:09;100207.03;;;15.78;93.57
818;BME280;391;51.052;6.954;2023-09-19T03:01:13;100210.53;;;15.72;93.66
818;BME280;391;51.052;6.954;2023-09-19T03:03:18;100220.19;;;15.72;94.02
818;BME280;391;51.052;6.954;2023-09-19T03:05:22;100211.41;;;15.70;93.79
818;BME280;391;51.052;6.954;2023-09-19T03:07:27;100214.91;;;15.64;93.87
818;BME280;391;51.052;6.954;2023-09-19T03:09:32;100212.31;;;15.57;94.62
818;BME280;391;51.052;6.954;2023-09-19T03:11:36;100219.28;;;15.61;94.21
818;BME280;391;51.052;6.954;2023-09-19T03:13:40;100214.91;;;15.58;92.70
818;BME280;391;51.052;6.954;2023-09-19T03:15:46;100206.16;;;15.49;93.34
818;BME280;391;51.052;6.954;2023-09-19T03:17:58;100193.84;;;15.42;91.64
818;BME280;391;51.052;6.954;2023-09-19T03:20:02;100221.06;;;15.56;91.48
818;BME280;391;51.052;6.954;2023-09-19T03:22:06;100231.53;;;15.54;92.26
818;BME280;391;51.052;6.954;2023-09-19T03:24:11;100237.72;;;15.73;91.63
818;BME280;391;51.052;6.954;2023-09-19T03:26:16;100240.31;;;15.65;91.30
818;BME280;391;51.052;6.954;2023-09-19T03:28:20;100242.97;;;15.53;92.93
818;BME280;391;51.052;6.954;2023-09-19T03:30:25;100232.44;;;15.49;92.76
818;BME280;391;51.052;6.954;2023-09-19T03:32:29;100241.22;;;15.51;93.25
818;BME280;391;51.052;6.954;2023-09-19T03:34:33;100238.56;;;15.49;93.32
818;BME280;391;51.052;6.954;2023-09-19T03:36:35;100228.88;;;15.45;93.84
818;BME280;391;51.052;6.954;2023-09-19T03:38:39;100228.88;;;15.36;94.56
818;BME280;391;51.052;6.954;2023-09-19T03:40:44;100229.75;;;15.36;94.41
818;BME280;391;51.052;6.954;2023-09-19T03:42:49;100222.75;;;15.37;94.32
818;BME280;391;51.052;6.954;2023-09-19T03:44:52;100229.75;;;15.36;94.26
818;BME280;391;51.052;6.954;2023-09-19T03:46:57;100224.50;;;15.36;94.85
818;BME280;391;51.052;6.954;2023-09-19T03:49:01;100227.13;;;15.38;95.07
818;BME280;391;51.052;6.954;2023-09-19T03:51:05;100217.50;;;15.31;95.82
818;BME280;391;51.052;6.954;2023-09-19T03:53:09;100225.38;;;15.37;95.65
818;BME280;391;51.052;6.954;2023-09-19T03:55:13;100227.13;;;15.35;95.52
818;BME280;391;51.052;6.954;2023-09-19T03:57:16;100228.88;;;15.27;96.05
818;BME280;391;51.052;6.954;2023-09-19T03:59:24;100214.00;;;15.24;96.18
818;BME280;391;51.052;6.954;2023-09-19T04:01:28;100217.47;;;15.23;96.21
818;BME280;391;51.052;6.954;2023-09-19T04:03:34;100192.94;;;15.06;96.98
818;BME280;391;51.052;6.954;2023-09-19T04:05:48;100210.47;;;15.21;97.38
818;BME280;391;51.052;6.954;2023-09-19T04:07:51;100206.09;;;15.14;97.51
818;BME280;391;51.052;6.954;2023-09-19T04:09:55;100210.47;;;15.13;98.07
818;BME280;391;51.052;6.954;2023-09-19T04:11:58;100213.09;;;15.12;98.19
818;BME280;391;51.052;6.954;2023-09-19T04:14:03;100181.56;;;14.95;97.85
818;BME280;391;51.052;6.954;2023-09-19T04:16:08;100213.97;;;15.14;98.72
818;BME280;391;51.052;6.954;2023-09-19T04:18:12;100218.31;;;15.10;98.97
818;BME280;391;51.052;6.954;2023-09-19T04:20:15;100220.06;;;15.13;99.38
818;BME280;391;51.052;6.954;2023-09-19T04:22:20;100183.28;;;14.89;99.27
818;BME280;391;51.052;6.954;2023-09-19T04:24:23;100224.47;;;15.11;99.66
818;BME280;391;51.052;6.954;2023-09-19T04:26:27;100224.47;;;15.14;99.03
818;BME280;391;51.052;6.954;2023-09-19T04:28:30;100224.44;;;15.06;99.65
818;BME280;391;51.052;6.954;2023-09-19T04:30:34;100218.31;;;14.98;100.00
818;BME280;391;51.052;6.954;2023-09-19T04:32:39;100213.94;;;14.96;100.00
818;BME280;391;51.052;6.954;2023-09-19T04:34:43;100210.41;;;14.89;100.00
818;BME280;391;51.052;6.954;2023-09-19T04:36:46;100223.53;;;14.94;100.00
818;BME280;391;51.052;6.954;2023-09-19T04:38:50;100227.91;;;14.92;100.00
818;BME280;391;51.052;6.954;2023-09-19T04:40:56;100213.91;;;14.85;99.54
818;BME280;391;51.052;6.954;2023-09-19T04:43:00;100222.69;;;14.93;99.34
818;BME280;391;51.052;6.954;2023-09-19T04:45:03;100232.28;;;14.90;99.38
818;BME280;391;51.052;6.954;2023-09-19T04:47:08;100228.78;;;14.86;99.79
818;BME280;391;51.052;6.954;2023-09-19T04:49:14;100238.44;;;14.93;98.85
818;BME280;391;51.052;6.954;2023-09-19T04:51:17;100240.19;;;14.93;98.94
818;BME280;391;51.052;6.954;2023-09-19T04:53:22;100238.41;;;14.90;98.75
818;BME280;391;51.052;6.954;2023-09-19T04:55:26;100219.97;;;14.78;98.61
818;BME280;391;51.052;6.954;2023-09-19T04:57:32;100234.91;;;14.83;98.80
818;BME280;391;51.052;6.954;2023-09-19T04:59:36;100249.78;;;14.86;98.59
818;BME280;391;51.052;6.954;2023-09-19T05:01:39;100241.00;;;14.82;98.17
818;BME280;391;51.052;6.954;2023-09-19T05:03:43;100241.88;;;14.81;98.36
818;BME280;391;51.052;6.954;2023-09-19T05:05:48;100254.13;;;14.79;98.56
818;BME280;391;51.052;6.954;2023-09-19T05:07:52;100247.09;;;14.72;98.27
818;BME280;391;51.052;6.954;2023-09-19T05:09:58;100244.50;;;14.81;97.52
818;BME280;391;51.052;6.954;2023-09-19T05:12:02;100244.50;;;14.80;97.89
818;BME280;391;51.052;6.954;2023-09-19T05:14:05;100239.22;;;14.72;98.24
818;BME280;391;51.052;6.954;2023-09-19T05:16:09;100244.47;;;14.69;98.41
818;BME280;391;51.052;6.954;2023-09-19T05:18:12;100248.84;;;14.70;98.33
818;BME280;391;51.052;6.954;2023-09-19T05:20:16;100255.81;;;14.71;98.00
818;BME280;391;51.052;6.954;2023-09-19T05:22:28;100261.97;;;14.73;98.11
818;BME280;391;51.052;6.954;2023-09-19T05:24:31;100261.06;;;14.71;97.92
818;BME280;391;51.052;6.954;2023-09-19T05:26:34;100273.28;;;14.68;98.42
818;BME280;391;51.052;6.954;2023-09-19T05:28:42;100279.47;;;14.76;97.90
818;BME280;391;51.052;6.954;2023-09-19T05:30:45;100285.56;;;14.72;98.13
818;BME280;391;51.052;6.954;2023-09-19T05:32:50;100285.59;;;14.73;97.34
818;BME280;391;51.052;6.954;2023-09-19T05:34:53;100283.88;;;14.77;97.80
818;BME280;391;51.052;6.954;2023-09-19T05:36:58;100294.38;;;14.77;97.60
818;BME280;391;51.052;6.954;2023-09-19T05:39:03;100286.50;;;14.77;97.00
818;BME280;391;51.052;6.954;2023-09-19T05:41:10;100301.38;;;14.84;97.17
818;BME280;391;51.052;6.954;2023-09-19T05:43:15;100298.78;;;14.89;96.61
818;BME280;391;51.052;6.954;2023-09-19T05:45:19;100299.66;;;14.91;96.20
818;BME280;391;51.052;6.954;2023-09-19T05:47:25;100239.16;;;14.57;96.08
818;BME280;391;51.052;6.954;2023-09-19T05:49:28;100300.53;;;14.91;96.09
818;BME280;391;51.052;6.954;2023-09-19T05:51:32;100309.28;;;14.89;96.12
818;BME280;391;51.052;6.954;2023-09-19T05:53:35;100313.66;;;14.88;95.92
818;BME280;391;51.052;6.954;2023-09-19T05:55:41;100314.56;;;14.95;95.31
818;BME280;391;51.052;6.954;2023-09-19T05:57:49;100288.25;;;14.84;95.05
818;BME280;391;51.052;6.954;2023-09-19T05:59:53;100322.47;;;14.99;94.84
818;BME280;391;51.052;6.954;2023-09-19T06:01:56;100325.94;;;14.97;94.93
818;BME280;391;51.052;6.954;2023-09-19T06:04:00;100328.56;;;15.00;95.08
818;BME280;391;51.052;6.954;2023-09-19T06:06:03;100327.75;;;15.16;94.37
818;BME280;391;51.052;6.954;2023-09-19T06:08:08;100331.28;;;15.25;93.36
818;BME280;391;51.052;6.954;2023-09-19T06:10:12;100324.31;;;15.24;93.47
818;BME280;391;51.052;6.954;2023-09-19T06:12:18;100344.44;;;15.24;94.29
818;BME280;391;51.052;6.954;2023-09-19T06:14:20;100339.16;;;15.15;93.90
818;BME280;391;51.052;6.954;2023-09-19T06:16:25;100311.06;;;14.93;94.36
818;BME280;391;51.052;6.954;2023-09-19T06:18:29;100351.38;;;15.08;94.41
818;BME280;391;51.052;6.954;2023-09-19T06:20:35;100357.50;;;15.10;94.68
818;BME280;391;51.052;6.954;2023-09-19T06:22:40;100356.66;;;15.17;94.42
818;BME280;391;51.052;6.954;2023-09-19T06:24:44;100354.94;;;15.24;94.30
818;BME280;391;51.052;6.954;2023-09-19T06:26:49;100364.53;;;15.17;95.11
818;BME280;391;51.052;6.954;2023-09-19T06:28:53;100365.41;;;15.15;94.84
818;BME280;391;51.052;6.954;2023-09-19T06:30:58;100351.34;;;15.04;95.01
818;BME280;391;51.052;6.954;2023-09-19T06:33:02;100358.38;;;15.11;95.84
818;BME280;391;51.052;6.954;2023-09-19T06:35:07;100355.72;;;15.09;96.14
818;BME280;391;51.052;6.954;2023-09-19T06:37:10;100360.13;;;15.09;96.37
818;BME280;391;51.052;6.954;2023-09-19T06:39:14;100289.00;;;14.62;97.04
818;BME280;391;51.052;6.954;2023-09-19T06:41:17;100363.63;;;15.08;97.08
818;BME280;391;51.052;6.954;2023-09-19T06:43:20;100361.84;;;15.07;96.35
818;BME280;391;51.052;6.954;2023-09-19T06:45:25;100370.59;;;15.04;96.70
818;BME280;391;51.052;6.954;2023-09-19T06:47:30;100361.84;;;15.04;96.33
818;BME280;391;51.052;6.954;2023-09-19T06:49:34;100343.47;;;14.99;96.61
818;BME280;391;51.052;6.954;2023-09-19T06:51:37;100356.59;;;15.01;97.31
818;BME280;391;51.052;6.954;2023-09-19T06:53:41;100346.97;;;15.03;97.05
818;BME280;391;51.052;6.954;2023-09-19T06:55:45;100339.91;;;14.94;96.54
818;BME280;391;51.052;6.954;2023-09-19T06:57:50;100350.47;;;15.05;96.39
818;BME280;391;51.052;6.954;2023-09-19T06:59:54;100366.25;;;15.11;95.97
818;BME280;391;51.052;6.954;2023-09-19T07:01:59;100355.75;;;15.11;95.73
818;BME280;391;51.052;6.954;2023-09-19T07:04:04;100347.00;;;15.06;96.02
818;BME280;391;51.052;6.954;2023-09-19T07:06:07;100362.78;;;15.15;95.68
818;BME280;391;51.052;6.954;2023-09-19T07:08:11;100356.63;;;15.16;95.91
818;BME280;391;51.052;6.954;2023-09-19T07:10:15;100340.88;;;15.13;94.54
818;BME280;391;51.052;6.954;2023-09-19T07:12:20;100339.97;;;15.06;95.73
818;BME280;391;51.052;6.954;2023-09-19T07:14:24;100368.06;;;15.24;94.47
818;BME280;391;51.052;6.954;2023-09-19T07:16:28;100372.44;;;15.20;95.15
818;BME280;391;51.052;6.954;2023-09-19T07:18:34;100373.31;;;15.28;94.76
818;BME280;391;51.052;6.954;2023-09-19T07:20:41;100374.19;;;15.26;94.45
818;BME280;391;51.052;6.954;2023-09-19T07:22:49;100354.91;;;15.18;94.59
818;BME280;391;51.052;6.954;2023-09-19T07:24:54;100365.47;;;15.27;95.08
818;BME280;391;51.052;6.954;2023-09-19T07:26:57;100363.69;;;15.26;95.09
818;BME280;391;51.052;6.954;2023-09-19T07:29:02;100370.75;;;15.31;94.46
818;BME280;391;51.052;6.954;2023-09-19T07:31:06;100367.22;;;15.31;95.34
818;BME280;391;51.052;6.954;2023-09-19T07:33:11;100378.63;;;15.36;94.41
818;BME280;391;51.052;6.954;2023-09-19T07:35:16;100383.91;;;15.41;94.62
818;BME280;391;51.052;6.954;2023-09-19T07:37:22;100383.91;;;15.45;94.65
818;BME280;391;51.052;6.954;2023-09-19T07:39:28;100387.44;;;15.49;94.47
818;BME280;391;51.052;6.954;2023-09-19T07:41:32;100384.84;;;15.50;94.50
818;BME280;391;51.052;6.954;2023-09-19T07:43:36;100376.06;;;15.51;94.09
818;BME280;391;51.052;6.954;2023-09-19T07:45:41;100393.63;;;15.58;93.71
818;BME280;391;51.052;6.954;2023-09-19T07:47:49;100405.00;;;15.60;93.51
818;BME280;391;51.052;6.954;2023-09-19T07:49:55;100399.78;;;15.71;93.38
818;BME280;391;51.052;6.954;2023-09-19T07:52:00;100387.50;;;15.70;91.69
818;BME280;391;51.052;6.954;2023-09-19T07:54:05;100392.75;;;15.70;91.80
818;BME280;391;51.052;6.954;2023-09-19T07:56:09;100404.19;;;15.75;92.50
818;BME280;391;51.052;6.954;2023-09-19T07:58:13;100404.19;;;15.81;91.33
818;BME280;391;51.052;6.954;2023-09-19T08:00:18;100403.31;;;15.82;90.83
818;BME280;391;51.052;6.954;2023-09-19T08:02:21;100403.34;;;15.85;91.35
818;BME280;391;51.052;6.954;2023-09-19T08:04:25;100404.22;;;15.92;90.66
818;BME280;391;51.052;6.954;2023-09-19T08:06:29;100395.44;;;15.94;90.84
818;BME280;391;51.052;6.954;2023-09-19T08:08:34;100408.63;;;16.02;90.05
818;BME280;391;51.052;6.954;2023-09-19T08:10:39;100407.72;;;16.06;89.91
818;BME280;391;51.052;6.954;2023-09-19T08:12:45;100405.09;;;16.09;90.20
818;BME280;391;51.052;6.954;2023-09-19T08:14:49;100396.38;;;16.11;88.75
818;BME280;391;51.052;6.954;2023-09-19T08:16:56;100401.63;;;16.17;89.26
818;BME280;391;51.052;6.954;2023-09-19T08:19:00;100409.50;;;16.31;89.31
818;BME280;391;51.052;6.954;2023-09-19T08:21:04;100413.91;;;16.39;89.13
818;BME280;391;51.052;6.954;2023-09-19T08:23:10;100406.88;;;16.35;88.40
818;BME280;391;51.052;6.954;2023-09-19T08:25:15;100414.78;;;16.41;87.68
818;BME280;391;51.052;6.954;2023-09-19T08:27:20;100408.63;;;16.49;87.67
818;BME280;391;51.052;6.954;2023-09-19T08:29:25;100416.50;;;16.53;86.54
818;BME280;391;51.052;6.954;2023-09-19T08:31:30;100422.69;;;16.57;84.15
818;BME280;391;51.052;6.954;2023-09-19T08:33:34;100410.38;;;16.40;86.58
818;BME280;391;51.052;6.954;2023-09-19T08:35:38;100412.13;;;16.51;86.75
818;BME280;391;51.052;6.954;2023-09-19T08:37:43;100408.63;;;16.52;86.68
818;BME280;391;51.052;6.954;2023-09-19T08:39:48;100419.16;;;16.59;86.40
818;BME280;391;51.052;6.954;2023-09-19T08:41:58;100424.44;;;16.67;85.33
818;BME280;391;51.052;6.954;2023-09-19T08:44:02;100421.81;;;16.71;85.22
818;BME280;391;51.052;6.954;2023-09-19T08:46:11;100422.69;;;16.73;83.24
818;BME280;391;51.052;6.954;2023-09-19T08:48:23;100420.94;;;16.68;83.76
818;BME280;391;51.052;6.954;2023-09-19T08:50:28;100423.56;;;16.77;83.54
818;BME280;391;51.052;6.954;2023-09-19T08:52:40;100421.81;;;16.80;83.71
818;BME280;391;51.052;6.954;2023-09-19T08:54:44;100425.31;;;16.87;84.21
818;BME280;391;51.052;6.954;2023-09-19T08:56:51;100423.53;;;16.89;83.12
818;BME280;391;51.052;6.954;2023-09-19T08:59:00;100413.88;;;16.96;82.38
818;BME280;391;51.052;6.954;2023-09-19T09:01:07;100427.03;;;16.96;83.02
818;BME280;391;51.052;6.954;2023-09-19T09:03:11;100429.66;;;17.03;80.09
818;BME280;391;51.052;6.954;2023-09-19T09:05:16;100413.00;;;16.86;79.91
818;BME280;391;51.052;6.954;2023-09-19T09:07:25;100420.00;;;16.94;80.11
818;BME280;391;51.052;6.954;2023-09-19T09:09:30;100425.25;;;17.08;79.33
818;BME280;391;51.052;6.954;2023-09-19T09:11:34;100423.50;;;17.10;79.57
818;BME280;391;51.052;6.954;2023-09-19T09:13:37;100420.84;;;17.19;79.48
818;BME280;391;51.052;6.954;2023-09-19T09:15:43;100419.91;;;17.31;79.64
818;BME280;391;51.052;6.954;2023-09-19T09:17:47;100431.28;;;17.43;77.76
818;BME280;391;51.052;6.954;2023-09-19T09:19:52;100404.94;;;17.36;76.57
818;BME280;391;51.052;6.954;2023-09-19T09:22:06;100425.09;;;17.55;76.33
818;BME280;391;51.052;6.954;2023-09-19T09:24:27;100426.84;;;17.62;76.16
818;BME280;391;51.052;6.954;2023-09-19T09:26:41;100427.59;;;17.84;76.00
818;BME280;391;51.052;6.954;2023-09-19T09:28:46;100418.84;;;17.79;73.50
818;BME280;391;51.052;6.954;2023-09-19T09:30:52;100409.16;;;17.79;73.12
818;BME280;391;51.052;6.954;2023-09-19T09:33:07;100414.34;;;17.94;74.07
818;BME280;391;51.052;6.954;2023-09-19T09:35:13;100410.75;;;18.09;72.55
818;BME280;391;51.052;6.954;2023-09-19T09:37:22;100408.09;;;18.06;72.63
818;BME280;391;51.052;6.954;2023-09-19T09:39:30;100410.72;;;18.11;71.47
818;BME280;391;51.052;6.954;2023-09-19T09:41:36;100415.09;;;18.13;71.57
818;BME280;391;51.052;6.954;2023-09-19T09:43:42;100410.53;;;18.36;70.75
818;BME280;391;51.052;6.954;2023-09-19T09:46:06;100426.38;;;18.32;68.82
818;BME280;391;51.052;6.954;2023-09-19T09:48:13;100415.00;;;18.27;69.97
818;BME280;391;51.052;6.954;2023-09-19T09:50:28;100414.13;;;18.28;69.81
818;BME280;391;51.052;6.954;2023-09-19T09:52:44;100408.75;;;18.35;69.59
818;BME280;391;51.052;6.954;2023-09-19T09:54:58;100415.75;;;18.42;68.27
818;BME280;391;51.052;6.954;2023-09-19T09:57:05;100415.72;;;18.47;68.58
818;BME280;391;51.052;6.954;2023-09-19T09:59:17;100415.63;;;18.61;68.91
818;BME280;391;51.052;6.954;2023-09-19T10:01:22;100419.09;;;18.69;69.29
818;BME280;391;51.052;6.954;2023-09-19T10:03:33;100428.72;;;18.74;66.69
818;BME280;391;51.052;6.954;2023-09-19T10:05:44;100414.75;;;18.62;68.13
818;BME280;391;51.052;6.954;2023-09-19T10:07:48;100423.50;;;18.70;66.85
818;BME280;391;51.052;6.954;2023-09-19T10:09:53;100381.44;;;18.42;66.66
818;BME280;391;51.052;6.954;2023-09-19T10:12:05;100427.00;;;18.67;67.08
818;BME280;391;51.052;6.954;2023-09-19T10:14:11;100426.91;;;18.78;66.78
818;BME280;391;51.052;6.954;2023-09-19T10:16:15;100411.06;;;18.79;68.01
818;BME280;391;51.052;6.954;2023-09-19T10:18:24;100415.25;;;18.98;65.54
818;BME280;391;51.052;6.954;2023-09-19T10:20:29;100415.25;;;19.01;66.14
818;BME280;391;51.052;6.954;2023-09-19T10:22:39;100400.13;;;19.13;65.45
818;BME280;391;51.052;6.954;2023-09-19T10:24:45;100404.53;;;19.14;63.17
818;BME280;391;51.052;6.954;2023-09-19T10:27:04;100399.19;;;19.17;65.21
818;BME280;391;51.052;6.954;2023-09-19T10:29:12;100400.88;;;19.24;64.17
818;BME280;391;51.052;6.954;2023-09-19T10:31:19;100392.81;;;19.34;64.00
818;BME280;391;51.052;6.954;2023-09-19T10:33:25;100335.13;;;18.96;64.31
818;BME280;391;51.052;6.954;2023-09-19T10:35:29;100403.47;;;19.28;64.54
818;BME280;391;51.052;6.954;2023-09-19T10:37:34;100393.91;;;19.15;65.50
818;BME280;391;51.052;6.954;2023-09-19T10:39:40;100392.13;;;19.20;64.30
818;BME280;391;51.052;6.954;2023-09-19T10:41:49;100397.41;;;19.19;64.85
818;BME280;391;51.052;6.954;2023-09-19T10:43:56;100392.13;;;19.20;65.72
818;BME280;391;51.052;6.954;2023-09-19T10:46:07;100387.63;;;19.25;65.12
818;BME280;391;51.052;6.954;2023-09-19T10:48:13;100382.31;;;19.30;66.66
818;BME280;391;51.052;6.954;2023-09-19T10:50:21;100371.63;;;19.37;64.94
818;BME280;391;51.052;6.954;2023-09-19T10:52:26;100390.13;;;19.37;64.11
818;BME280;391;51.052;6.954;2023-09-19T10:54:33;100377.91;;;19.30;64.82
818;BME280;391;51.052;6.954;2023-09-19T10:56:44;100391.00;;;19.38;63.84
818;BME280;391;51.052;6.954;2023-09-19T10:58:51;100385.50;;;19.59;64.31
818;BME280;391;51.052;6.954;2023-09-19T11:00:56;100379.19;;;19.68;63.09
818;BME280;391;51.052;6.954;2023-09-19T11:03:16;100366.84;;;19.67;61.49
818;BME280;391;51.052;6.954;2023-09-19T11:05:24;100387.78;;;19.83;62.56
818;BME280;391;51.052;6.954;2023-09-19T11:07:28;100386.91;;;19.83;63.51
818;BME280;391;51.052;6.954;2023-09-19T11:09:49;100398.97;;;20.02;61.97
818;BME280;391;51.052;6.954;2023-09-19T11:11:55;100388.31;;;20.06;62.24
818;BME280;391;51.052;6.954;2023-09-19T11:25:42;100396.50;;;20.46;61.00
818;BME280;391;51.052;6.954;2023-09-19T11:30:27;100404.13;;;20.66;59.81
818;BME280;391;51.052;6.954;2023-09-19T11:35:58;100393.53;;;20.65;61.71
818;BME280;391;51.052;6.954;2023-09-19T11:38:03;100371.50;;;20.64;61.19
818;BME280;391;51.052;6.954;2023-09-19T11:40:13;100381.09;;;21.16;60.69
818;BME280;391;51.052;6.954;2023-09-19T11:42:41;100397.66;;;20.81;59.62
818;BME280;391;51.052;6.954;2023-09-19T11:44:45;100395.50;;;21.02;59.41
818;BME280;391;51.052;6.954;2023-09-19T11:46:52;100388.63;;;20.92;60.47
818;BME280;391;51.052;6.954;2023-09-19T11:49:04;100404.66;;;20.86;59.77
818;BME280;391;51.052;6.954;2023-09-19T11:51:20;100389.06;;;20.68;59.16
818;BME280;391;51.052;6.954;2023-09-19T11:53:31;100388.88;;;20.77;58.22